Time,TemperatureF,DewpointF,PressureIn,WindDirection,WindDirectionDegrees,WindSpeedMPH,WindSpeedGustMPH,Humidity,HourlyPrecipIn,Conditions,Clouds,dailyrainin,SoftwareType,DateUTC
2013-08-03 00:12:00,55.0,49.0,-100.00,NNE,23,0.0,1.0,80,-99.99,,,-99.99,,2013-08-03 07:12:00,
2013-08-03 01:10:00,52.0,50.0,-100.00,ESE,106,0.0,1.0,92,-99.99,,,-99.99,,2013-08-03 08:10:00,
2013-08-03 02:02:00,52.0,50.0,-100.00,ESE,106,0.0,1.0,92,-99.99,,,-99.99,,2013-08-03 09:02:00,
2013-08-03 03:10:00,51.0,51.0,-100.00,NW,315,0.0,1.0,100,-99.99,,,-99.99,,2013-08-03 10:10:00,
2013-08-03 03:12:00,51.0,51.0,-100.00,NW,315,0.0,1.0,100,-99.99,,,-99.99,,2013-08-03 10:12:00,
2013-08-03 04:20:00,51.0,51.0,-100.00,WSW,253,0.0,1.0,100,-99.99,,,-99.99,,2013-08-03 11:20:00,
2013-08-03 05:10:00,50.0,-99.9,-100.00,WNW,287,0.0,1.0,-999,-99.99,,,-99.99,,2013-08-03 12:10:00,
2013-08-03 05:12:00,51.0,51.0,-100.00,WSW,253,0.0,1.0,100,-99.99,,,-99.99,,2013-08-03 12:12:00,
2013-08-03 06:02:00,50.0,-99.9,-100.00,WNW,287,0.0,1.0,-999,-99.99,,,-99.99,,2013-08-03 13:02:00,
2013-08-03 07:13:00,51.0,-99.9,-100.00,SSE,158,0.0,1.0,-999,-99.99,,,-99.99,,2013-08-03 14:13:00,
2013-08-03 09:12:00,58.0,58.0,-100.00,East,97,1.0,6.0,100,-99.99,,,-99.99,,2013-08-03 16:12:00,
2013-08-03 11:12:00,67.0,51.0,-100.00,NW,323,1.0,6.0,56,-99.99,,,-99.99,,2013-08-03 18:12:00,
2013-08-03 12:10:00,76.0,54.0,-100.00,NNE,14,1.0,3.0,46,-99.99,,,-99.99,,2013-08-03 19:10:00,
2013-08-03 14:10:00,80.0,50.0,-100.00,North,352,1.0,5.0,35,-99.99,,,-99.99,,2013-08-03 21:10:00,
2013-08-03 16:10:00,77.0,51.0,-100.00,NE,47,2.0,7.0,40,-99.99,,,-99.99,,2013-08-03 23:10:00,
2013-08-03 17:02:00,77.0,51.0,-100.00,NE,47,2.0,7.0,40,-99.99,,,-99.99,,2013-08-04 00:02:00,
2013-08-03 17:20:00,79.0,53.0,-100.00,NNW,332,0.0,1.0,40,-99.99,,,-99.99,,2013-08-04 00:20:00,
2013-08-03 18:02:00,79.0,53.0,-100.00,NNW,332,0.0,1.0,40,-99.99,,,-99.99,,2013-08-04 01:02:00,
2013-08-03 18:10:00,76.0,52.0,-100.00,NNW,342,1.0,3.0,43,-99.99,,,-99.99,,2013-08-04 01:10:00,
2013-08-03 18:12:00,79.0,53.0,-100.00,NNW,332,0.0,1.0,40,-99.99,,,-99.99,,2013-08-04 01:12:00,
2013-08-03 20:02:00,73.0,55.0,-100.00,NNW,328,0.0,1.0,53,-99.99,,,-99.99,,2013-08-04 03:02:00,
2013-08-03 20:10:00,71.0,57.0,-100.00,SE,141,1.0,3.0,61,-99.99,,,-99.99,,2013-08-04 03:10:00,
2013-08-03 20:11:00,73.0,55.0,-100.00,NNW,328,0.0,1.0,53,-99.99,,,-99.99,,2013-08-04 03:11:00,
2013-08-03 21:02:00,71.0,57.0,-100.00,SE,141,1.0,3.0,61,-99.99,,,-99.99,,2013-08-04 04:02:00,
2013-08-03 22:02:00,67.0,57.0,-100.00,East,80,1.0,2.0,70,-99.99,,,-99.99,,2013-08-04 05:02:00,
2013-08-03 22:12:00,67.0,57.0,-100.00,East,80,1.0,2.0,70,-99.99,,,-99.99,,2013-08-04 05:12:00,
2013-08-03 23:01:00,64.0,57.0,-100.00,ENE,62,0.0,1.0,77,-99.99,,,-99.99,,2013-08-04 06:01:00,